createdAt,value
2017-09-12T00:00:46.965Z,83.7
2017-09-12T00:01:47.619Z,83.5
2017-09-12T00:02:48.271Z,83.4
2017-09-12T00:03:48.924Z,83.4
2017-09-12T00:04:49.613Z,83.5
2017-09-12T00:05:50.566Z,83.4
2017-09-12T00:06:51.219Z,83.4
2017-09-12T00:07:51.874Z,83.9
2017-09-12T00:08:52.615Z,83.6
2017-09-12T00:09:53.269Z,83.5
2017-09-12T00:10:54.172Z,83.3
2017-09-12T00:11:54.825Z,83.9
2017-09-12T00:12:55.478Z,83.9
2017-09-12T00:13:56.131Z,83.5
2017-09-12T00:14:56.792Z,83.7
2017-09-12T00:15:57.694Z,83.8
2017-09-12T00:16:58.348Z,83.9
2017-09-12T00:17:59.003Z,83.5
2017-09-12T00:18:59.656Z,83.3
2017-09-12T00:20:00.309Z,83.8
2017-09-12T00:21:01.214Z,83.5
2017-09-12T00:22:01.868Z,83.6
2017-09-12T00:23:02.521Z,83.2
2017-09-12T00:24:03.181Z,83.2
2017-09-12T00:25:03.836Z,83.2
2017-09-12T00:26:04.788Z,82.9
2017-09-12T00:27:05.442Z,83.6
2017-09-12T00:28:06.100Z,83.4
2017-09-12T00:29:06.753Z,83.1
2017-09-12T00:30:07.407Z,82.8
2017-09-12T00:31:08.311Z,82.9
2017-09-12T00:32:08.967Z,82.7
2017-09-12T00:33:09.619Z,82.4
2017-09-12T00:34:10.274Z,82.7
2017-09-12T00:35:10.928Z,82.5
2017-09-12T00:36:11.830Z,82.5
2017-09-12T00:37:12.484Z,82.5
2017-09-12T00:38:13.139Z,82.9
2017-09-12T00:39:13.791Z,83.2
2017-09-12T00:40:14.445Z,82.4
2017-09-12T00:41:15.349Z,82.8
2017-09-12T00:42:16.003Z,83.0
2017-09-12T00:43:16.657Z,82.7
2017-09-12T00:44:17.310Z,82.8
2017-09-12T00:45:17.963Z,82.6
2017-09-12T00:46:18.917Z,82.8
2017-09-12T00:47:19.569Z,82.7
2017-09-12T00:48:20.224Z,83.3
2017-09-12T00:49:20.878Z,82.7
2017-09-12T00:50:21.530Z,83.0
2017-09-12T00:51:22.486Z,83.2
2017-09-12T00:52:23.140Z,82.7
2017-09-12T00:53:23.793Z,82.7
2017-09-12T00:54:24.447Z,82.8
2017-09-12T00:55:25.102Z,82.9
2017-09-12T00:56:26.055Z,82.5
2017-09-12T00:57:26.709Z,82.8
2017-09-12T00:58:27.362Z,82.9
2017-09-12T00:59:28.017Z,83.1
2017-09-12T01:00:28.670Z,83.2
2017-09-12T01:01:29.658Z,83.0
2017-09-12T01:02:30.313Z,82.8
2017-09-12T01:03:30.965Z,82.7
2017-09-12T01:04:31.619Z,83.0
2017-09-12T01:05:32.275Z,82.5
2017-09-12T01:06:33.178Z,82.9
2017-09-12T01:07:33.867Z,83.0
2017-09-12T01:08:34.521Z,83.1
2017-09-12T01:09:35.173Z,83.2
2017-09-12T01:10:35.826Z,83.1
2017-09-12T01:11:36.731Z,82.7
2017-09-12T01:12:37.386Z,82.7
2017-09-12T01:13:38.038Z,82.9
2017-09-12T01:14:38.692Z,82.8
2017-09-12T01:15:39.346Z,82.6
2017-09-12T01:16:40.300Z,83.2
2017-09-12T01:17:40.954Z,82.7
2017-09-12T01:18:41.620Z,82.6
2017-09-12T01:19:42.272Z,82.9
2017-09-12T01:20:42.961Z,82.8
2017-09-12T01:21:43.917Z,82.6
2017-09-12T01:22:44.571Z,82.7
2017-09-12T01:23:45.223Z,83.2
2017-09-12T01:24:45.876Z,82.8
2017-09-12T01:25:46.530Z,82.8
2017-09-12T01:26:47.484Z,83.1
2017-09-12T01:27:48.139Z,83.5
2017-09-12T01:28:48.792Z,82.9
2017-09-12T01:29:49.444Z,83.2
2017-09-12T01:30:50.097Z,83.9
2017-09-12T01:31:51.052Z,83.5
2017-09-12T01:32:51.706Z,83.2
2017-09-12T01:33:52.359Z,83.2
2017-09-12T01:34:53.013Z,83.7
2017-09-12T01:35:53.668Z,83.8
2017-09-12T01:36:54.620Z,83.5
2017-09-12T01:37:55.273Z,83.6
2017-09-12T01:38:55.927Z,83.5
2017-09-12T01:39:56.581Z,83.6
2017-09-12T01:40:57.234Z,83.9
2017-09-12T01:41:58.191Z,84.3
2017-09-12T01:42:58.843Z,84.5
2017-09-12T01:43:59.495Z,84.2
2017-09-12T01:45:00.148Z,84.4
2017-09-12T01:46:00.802Z,84.4
2017-09-12T01:47:01.757Z,84.7
2017-09-12T01:48:02.408Z,84.6
2017-09-12T01:49:03.067Z,84.5
2017-09-12T01:50:03.717Z,84.2
2017-09-12T01:51:04.370Z,84.7
2017-09-12T01:52:05.326Z,84.0
2017-09-12T01:53:05.980Z,84.9
2017-09-12T01:54:06.634Z,84.7
2017-09-12T01:55:07.298Z,84.7
2017-09-12T01:56:07.940Z,85.4
2017-09-12T01:57:08.896Z,85.4
2017-09-12T01:58:09.584Z,85.4
2017-09-12T01:59:10.236Z,85.5
2017-09-12T02:00:10.890Z,85.6
2017-09-12T02:01:11.546Z,85.6
2017-09-12T02:02:12.499Z,85.4
2017-09-12T02:03:13.152Z,85.4
2017-09-12T02:04:13.807Z,85.7
2017-09-12T02:05:14.460Z,85.2
2017-09-12T02:06:15.113Z,85.2
2017-09-12T02:07:16.016Z,85.3
2017-09-12T02:08:16.669Z,85.4
2017-09-12T02:09:17.321Z,85.3
2017-09-12T02:10:17.975Z,85.5
2017-09-12T02:11:18.629Z,85.4
2017-09-12T02:12:19.581Z,85.4
2017-09-12T02:13:20.234Z,85.8
2017-09-12T02:14:20.890Z,85.4
2017-09-12T02:15:21.541Z,85.5
2017-09-12T02:17:06.065Z,85.3
2017-09-12T02:18:07.018Z,85.4
2017-09-12T02:19:07.671Z,85.4
2017-09-12T02:20:08.326Z,85.4
2017-09-12T02:21:08.978Z,85.6
2017-09-12T02:22:09.631Z,85.4
2017-09-12T02:23:10.586Z,85.4
2017-09-12T02:24:11.242Z,85.2
2017-09-12T02:25:11.894Z,85.4
2017-09-12T02:26:12.549Z,85.4
2017-09-12T02:27:13.204Z,85.4
2017-09-12T02:28:14.106Z,85.2
2017-09-12T02:29:14.760Z,85.3
2017-09-12T02:30:15.416Z,85.5
2017-09-12T02:31:16.069Z,84.9
2017-09-12T02:32:16.723Z,84.7
2017-09-12T02:33:17.675Z,84.7
2017-09-12T02:34:18.329Z,85.5
2017-09-12T02:35:18.984Z,84.9
2017-09-12T02:36:19.638Z,84.7
2017-09-12T02:37:20.289Z,84.9
2017-09-12T02:38:21.194Z,84.8
2017-09-12T02:39:21.849Z,84.7
2017-09-12T02:40:22.501Z,84.9
2017-09-12T02:41:23.158Z,84.8
2017-09-12T02:42:23.843Z,84.6
2017-09-12T02:43:24.747Z,84.2
2017-09-12T02:44:25.399Z,84.8
2017-09-12T02:45:26.054Z,84.0
2017-09-12T02:46:26.709Z,85.0
2017-09-12T02:47:27.359Z,84.4
2017-09-12T02:48:28.312Z,84.6
2017-09-12T02:49:28.965Z,84.2
2017-09-12T02:50:29.619Z,84.3
2017-09-12T02:51:30.280Z,84.6
2017-09-12T02:52:30.932Z,84.4
2017-09-12T02:53:31.842Z,84.5
2017-09-12T02:54:32.490Z,84.4
2017-09-12T02:55:33.140Z,84.5
2017-09-12T02:56:33.793Z,84.6
2017-09-12T02:57:34.450Z,84.5
2017-09-12T02:58:35.400Z,84.6
2017-09-12T02:59:36.055Z,84.3
2017-09-12T03:00:36.710Z,84.2
2017-09-12T03:01:37.363Z,84.7
2017-09-12T03:02:38.015Z,84.6
2017-09-12T03:03:38.968Z,84.9
2017-09-12T03:04:39.623Z,84.7
2017-09-12T03:05:40.276Z,84.6
2017-09-12T03:06:40.929Z,84.8
2017-09-12T03:07:41.598Z,84.9
2017-09-12T03:08:42.552Z,84.1
2017-09-12T03:09:43.206Z,84.9
2017-09-12T03:10:43.863Z,84.4
2017-09-12T03:11:44.516Z,84.3
2017-09-12T03:12:45.168Z,84.3
2017-09-12T03:13:46.122Z,84.6
2017-09-12T03:14:46.773Z,84.4
2017-09-12T03:15:47.425Z,84.4
2017-09-12T03:16:48.079Z,84.4
2017-09-12T03:17:48.732Z,84.2
2017-09-12T03:18:49.686Z,84.2
2017-09-12T03:19:50.340Z,84.1
2017-09-12T03:20:50.993Z,84.2
2017-09-12T03:21:51.645Z,84.2
2017-09-12T03:22:52.298Z,84.0
2017-09-12T03:23:53.203Z,84.3
2017-09-12T03:24:53.856Z,84.4
2017-09-12T03:25:54.509Z,84.2
2017-09-12T03:26:55.168Z,84.0
2017-09-12T03:27:55.821Z,84.2
2017-09-12T03:28:56.728Z,84.1
2017-09-12T03:29:57.380Z,84.5
2017-09-12T03:30:58.042Z,84.5
2017-09-12T03:31:58.693Z,84.2
2017-09-12T03:32:59.350Z,84.0
2017-09-12T03:34:00.338Z,84.0
2017-09-12T03:35:00.992Z,84.1
2017-09-12T03:36:01.643Z,84.3
2017-09-12T03:37:02.298Z,83.8
2017-09-12T03:38:02.952Z,83.7
2017-09-12T03:39:03.855Z,83.6
2017-09-12T03:40:04.510Z,83.8
2017-09-12T03:41:05.162Z,83.6
2017-09-12T03:42:05.815Z,83.8
2017-09-12T03:43:06.467Z,83.9
2017-09-12T03:44:07.423Z,84.2
2017-09-12T03:45:08.075Z,83.7
2017-09-12T03:46:08.730Z,84.0
2017-09-12T03:47:09.384Z,83.9
2017-09-12T03:48:10.038Z,83.9
2017-09-12T03:49:10.940Z,83.8
2017-09-12T03:50:11.595Z,83.6
2017-09-12T03:51:12.249Z,83.8
2017-09-12T03:52:12.901Z,83.6
2017-09-12T03:53:13.553Z,83.2
2017-09-12T03:54:14.459Z,83.4
2017-09-12T03:55:15.111Z,83.1
2017-09-12T03:56:15.764Z,83.5
2017-09-12T03:57:16.419Z,83.6
2017-09-12T03:58:17.071Z,83.5
2017-09-12T03:59:18.025Z,83.4
2017-09-12T04:00:18.680Z,83.3
2017-09-12T04:01:19.333Z,84.1
2017-09-12T04:02:19.987Z,83.6
2017-09-12T04:03:20.639Z,83.5
2017-09-12T04:04:21.598Z,84.1
2017-09-12T04:05:22.283Z,83.9
2017-09-12T04:06:22.935Z,84.1
2017-09-12T04:07:23.594Z,83.8
2017-09-12T04:08:24.278Z,83.6
2017-09-12T04:09:25.182Z,83.9
2017-09-12T04:10:25.836Z,83.8
2017-09-12T04:11:26.490Z,83.8
2017-09-12T04:12:27.144Z,84.2
2017-09-12T04:13:27.833Z,83.4
2017-09-12T04:14:28.737Z,83.5
2017-09-12T04:15:29.394Z,83.5
2017-09-12T04:16:30.046Z,83.8
2017-09-12T04:17:30.700Z,83.4
2017-09-12T04:18:31.353Z,83.6
2017-09-12T04:19:32.308Z,83.6
2017-09-12T04:20:32.960Z,83.3
2017-09-12T04:21:33.614Z,83.2
2017-09-12T04:22:34.269Z,83.4
2017-09-12T04:23:34.920Z,83.4
2017-09-12T04:24:35.876Z,83.0
2017-09-12T04:25:36.537Z,83.6
2017-09-12T04:26:37.222Z,83.7
2017-09-12T04:27:37.875Z,83.4
2017-09-12T04:28:38.530Z,83.0
2017-09-12T04:29:39.436Z,83.2
2017-09-12T04:30:40.090Z,83.6
2017-09-12T04:31:40.745Z,83.1
2017-09-12T04:32:41.399Z,83.4
2017-09-12T04:33:42.056Z,83.3
2017-09-12T04:34:43.010Z,83.5
2017-09-12T04:35:43.664Z,83.3
2017-09-12T04:36:44.321Z,83.7
2017-09-12T04:37:44.976Z,83.3
2017-09-12T04:38:45.632Z,83.3
2017-09-12T04:39:46.588Z,83.1
2017-09-12T04:40:47.241Z,83.3
2017-09-12T04:41:47.899Z,83.1
2017-09-12T04:42:48.589Z,83.2
2017-09-12T04:43:49.242Z,83.2
2017-09-12T04:44:50.151Z,83.2
2017-09-12T04:45:50.807Z,83.2
2017-09-12T04:46:51.464Z,83.3
2017-09-12T04:47:52.118Z,83.3
2017-09-12T04:48:52.776Z,83.2
2017-09-12T04:49:53.682Z,82.6
2017-09-12T04:50:54.338Z,83.2
2017-09-12T04:51:54.993Z,83.0
2017-09-12T04:52:55.651Z,83.4
2017-09-12T04:53:56.306Z,83.1
2017-09-12T04:54:57.262Z,82.6
2017-09-12T04:55:57.918Z,82.8
2017-09-12T04:56:58.577Z,82.8
2017-09-12T04:57:59.229Z,83.0
2017-09-12T04:58:59.885Z,82.7
2017-09-12T05:00:00.791Z,82.6
2017-09-12T05:01:01.449Z,83.2
2017-09-12T05:02:02.102Z,82.8
2017-09-12T05:03:02.792Z,83.4
2017-09-12T05:04:03.479Z,82.7
2017-09-12T05:05:04.405Z,82.7
2017-09-12T05:06:05.062Z,82.7
2017-09-12T05:07:05.754Z,82.8
2017-09-12T05:08:06.412Z,82.9
2017-09-12T05:09:07.069Z,82.9
2017-09-12T05:10:07.976Z,82.4
2017-09-12T05:11:08.636Z,82.1
2017-09-12T05:12:09.292Z,81.9
2017-09-12T05:13:09.947Z,82.1
2017-09-12T05:14:10.607Z,81.8
2017-09-12T05:15:11.561Z,81.7
2017-09-12T05:16:12.217Z,82.0
2017-09-12T05:17:12.876Z,81.9
2017-09-12T05:18:13.532Z,81.4
2017-09-12T05:19:14.193Z,81.5
2017-09-12T05:20:15.186Z,81.3
2017-09-12T05:21:15.845Z,81.3
2017-09-12T05:22:16.505Z,81.0
2017-09-12T05:23:17.163Z,81.2
2017-09-12T05:24:17.828Z,81.1
2017-09-12T05:25:18.787Z,80.8
2017-09-12T05:26:19.445Z,80.8
2017-09-12T05:27:20.104Z,81.1
2017-09-12T05:28:20.763Z,80.4
2017-09-12T05:29:21.420Z,81.4
2017-09-12T05:30:22.328Z,80.6
2017-09-12T05:31:22.987Z,80.7
2017-09-12T05:32:23.645Z,80.8
2017-09-12T05:33:24.304Z,80.7
2017-09-12T05:34:24.962Z,80.8
2017-09-12T05:35:25.921Z,80.9
2017-09-12T05:36:26.581Z,80.5
2017-09-12T05:37:27.239Z,80.6
2017-09-12T05:38:27.898Z,80.7
2017-09-12T05:39:28.556Z,80.7
2017-09-12T05:40:29.467Z,80.8
2017-09-12T05:41:30.125Z,80.7
2017-09-12T05:42:30.783Z,80.6
2017-09-12T05:43:31.441Z,80.9
2017-09-12T05:44:32.102Z,81.2
2017-09-12T05:45:33.057Z,80.6
2017-09-12T05:46:33.769Z,81.3
2017-09-12T05:47:34.410Z,80.7
2017-09-12T05:48:35.070Z,80.9
2017-09-12T05:49:35.726Z,80.4
2017-09-12T05:50:36.685Z,80.1
2017-09-12T05:51:37.342Z,80.0
2017-09-12T05:52:38.001Z,79.9
2017-09-12T05:53:38.660Z,79.9
2017-09-12T05:54:39.320Z,79.3
2017-09-12T05:55:40.227Z,79.7
2017-09-12T05:56:40.886Z,79.5
2017-09-12T05:57:41.543Z,79.2
2017-09-12T05:58:42.203Z,79.1
2017-09-12T05:59:42.865Z,79.2
2017-09-12T06:00:43.769Z,78.6
2017-09-12T06:01:44.464Z,78.6
2017-09-12T06:02:45.126Z,77.6
2017-09-12T06:03:45.784Z,77.7
2017-09-12T06:04:46.477Z,77.4
2017-09-12T06:05:47.386Z,77.5
2017-09-12T06:06:48.043Z,76.9
2017-09-12T06:07:48.701Z,77.7
2017-09-12T06:08:49.360Z,77.5
2017-09-12T06:09:50.019Z,76.7
2017-09-12T06:10:50.927Z,76.8
2017-09-12T06:11:51.586Z,76.9
2017-09-12T06:12:52.244Z,76.8
2017-09-12T06:13:52.908Z,76.7
2017-09-12T06:14:53.562Z,77.0
2017-09-12T06:15:54.522Z,76.8
2017-09-12T06:16:55.181Z,77.4
2017-09-12T06:17:55.838Z,76.6
2017-09-12T06:18:56.496Z,76.7
2017-09-12T06:19:57.154Z,76.8
2017-09-12T06:20:58.065Z,76.9
2017-09-12T06:21:58.725Z,76.6
2017-09-12T06:22:59.386Z,76.7
2017-09-12T06:24:00.045Z,76.6
2017-09-12T06:25:00.704Z,77.0
2017-09-12T06:26:01.616Z,76.9
2017-09-12T06:27:02.275Z,76.9
2017-09-12T06:28:02.932Z,76.4
2017-09-12T06:29:03.591Z,76.6
2017-09-12T06:30:04.250Z,76.4
2017-09-12T06:31:05.160Z,76.9
2017-09-12T06:32:05.822Z,76.8
2017-09-12T06:33:06.480Z,76.7
2017-09-12T06:34:07.139Z,76.8
2017-09-12T06:35:07.797Z,77.0
2017-09-12T06:36:08.764Z,76.5
2017-09-12T06:37:09.425Z,76.7
2017-09-12T06:38:10.083Z,76.7
2017-09-12T06:39:10.741Z,76.9
2017-09-12T06:40:11.400Z,76.7
2017-09-12T06:41:12.308Z,76.9
2017-09-12T06:42:12.969Z,76.0
2017-09-12T06:43:13.629Z,75.7
2017-09-12T06:44:14.320Z,76.1
2017-09-12T06:45:14.979Z,75.4
2017-09-12T06:46:15.891Z,76.1
2017-09-12T06:47:16.549Z,75.7
2017-09-12T06:48:17.208Z,75.4
2017-09-12T06:49:17.866Z,75.6
2017-09-12T06:50:18.525Z,76.2
2017-09-12T06:51:19.487Z,75.0
2017-09-12T06:52:20.146Z,75.6
2017-09-12T06:53:20.804Z,75.4
2017-09-12T06:54:21.463Z,76.1
2017-09-12T06:55:22.121Z,75.9
2017-09-12T06:56:23.082Z,75.5
2017-09-12T06:57:23.742Z,76.0
2017-09-12T06:58:24.400Z,75.0
2017-09-12T06:59:25.060Z,75.3
2017-09-12T07:00:25.718Z,75.1
2017-09-12T07:01:26.628Z,75.4
2017-09-12T07:02:27.287Z,75.8
2017-09-12T07:03:27.944Z,75.2
2017-09-12T07:04:28.604Z,75.3
2017-09-12T07:05:29.269Z,75.0
2017-09-12T07:06:30.176Z,75.4
2017-09-12T07:07:30.836Z,75.0
2017-09-12T07:08:31.530Z,74.5
2017-09-12T07:09:32.189Z,74.8
2017-09-12T07:10:32.854Z,74.1
2017-09-12T07:11:33.762Z,73.7
2017-09-12T07:12:34.421Z,74.0
2017-09-12T07:13:35.081Z,73.7
2017-09-12T07:14:35.740Z,73.7
2017-09-12T07:15:36.401Z,73.8
2017-09-12T07:16:37.364Z,73.9
2017-09-12T07:17:38.027Z,73.6
2017-09-12T07:18:38.728Z,73.0
2017-09-12T07:19:39.420Z,73.2
2017-09-12T07:20:40.080Z,73.6
2017-09-12T07:21:41.045Z,73.3
2017-09-12T07:22:41.706Z,72.3
2017-09-12T07:23:42.367Z,72.6
2017-09-12T07:24:43.028Z,71.9
2017-09-12T07:25:43.689Z,72.2
2017-09-12T07:26:45.402Z,72.2
2017-09-12T07:27:46.062Z,71.9
2017-09-12T07:28:46.722Z,72.1
2017-09-12T07:29:47.384Z,72.4
2017-09-12T07:30:48.046Z,72.0
2017-09-12T07:31:48.958Z,72.0
2017-09-12T07:32:49.655Z,71.3
2017-09-12T07:33:50.316Z,71.8
2017-09-12T07:34:50.982Z,71.0
2017-09-12T07:35:51.644Z,71.2
2017-09-12T07:36:52.605Z,71.0
2017-09-12T07:37:53.267Z,70.1
2017-09-12T07:38:53.930Z,70.1
2017-09-12T07:39:54.600Z,69.6
2017-09-12T07:40:55.263Z,69.7
2017-09-12T07:41:56.226Z,69.8
2017-09-12T07:42:56.889Z,70.6
2017-09-12T07:43:57.586Z,69.5
2017-09-12T07:44:58.251Z,68.9
2017-09-12T07:45:58.914Z,68.1
2017-09-12T07:46:59.825Z,68.5
2017-09-12T07:48:00.488Z,68.9
2017-09-12T07:49:01.147Z,68.6
2017-09-12T07:50:01.810Z,68.9
2017-09-12T07:51:02.473Z,68.8
2017-09-12T07:52:03.384Z,68.4
2017-09-12T07:53:04.048Z,68.8
2017-09-12T07:54:04.713Z,69.2
2017-09-12T07:55:05.379Z,68.7
2017-09-12T07:56:06.036Z,68.6
2017-09-12T07:57:06.998Z,68.9
2017-09-12T07:58:07.665Z,68.9
2017-09-12T07:59:08.323Z,68.8
2017-09-12T08:00:08.988Z,68.9
2017-09-12T08:01:09.652Z,68.8
2017-09-12T08:02:10.565Z,69.0
2017-09-12T08:03:11.228Z,68.7
2017-09-12T08:04:11.889Z,68.8
2017-09-12T08:05:12.553Z,69.4
2017-09-12T08:06:13.250Z,69.0
2017-09-12T08:07:14.164Z,68.1
2017-09-12T08:08:14.826Z,68.1
2017-09-12T08:09:15.524Z,68.2
2017-09-12T08:10:16.185Z,69.2
2017-09-12T08:11:16.847Z,69.0
2017-09-12T08:12:17.816Z,68.1
2017-09-12T08:13:18.475Z,67.8
2017-09-12T08:14:19.135Z,66.8
2017-09-12T08:15:19.796Z,67.1
2017-09-12T08:16:20.460Z,67.9
2017-09-12T08:17:21.374Z,67.8
2017-09-12T08:18:22.037Z,68.0
2017-09-12T08:19:22.700Z,68.0
2017-09-12T08:20:23.366Z,67.7
2017-09-12T08:21:24.027Z,67.6
2017-09-12T08:22:24.989Z,68.3
2017-09-12T08:23:25.651Z,67.3
2017-09-12T08:24:26.314Z,66.0
2017-09-12T08:25:27.012Z,67.1
2017-09-12T08:26:27.675Z,66.7
2017-09-12T08:27:28.642Z,66.7
2017-09-12T08:28:29.303Z,67.0
2017-09-12T08:29:29.965Z,66.8
2017-09-12T08:30:30.628Z,66.8
2017-09-12T08:31:31.290Z,66.6
2017-09-12T08:32:32.252Z,66.1
2017-09-12T08:33:32.915Z,66.3
2017-09-12T08:34:33.579Z,66.3
2017-09-12T08:35:34.243Z,66.3
2017-09-12T08:36:34.907Z,66.7
2017-09-12T08:37:35.870Z,66.7
2017-09-12T08:38:36.532Z,65.7
2017-09-12T08:39:37.195Z,67.1
2017-09-12T08:40:37.857Z,66.2
2017-09-12T08:41:38.521Z,66.2
2017-09-12T08:42:39.434Z,66.3
2017-09-12T08:43:40.095Z,67.1
2017-09-12T08:44:40.755Z,67.5
2017-09-12T08:45:41.453Z,67.5
2017-09-12T08:46:42.115Z,67.5
2017-09-12T08:47:43.078Z,67.5
2017-09-12T08:48:43.745Z,67.6
2017-09-12T08:49:44.403Z,67.3
2017-09-12T08:50:45.067Z,67.6
2017-09-12T08:51:45.731Z,66.3
2017-09-12T08:52:46.691Z,67.0
2017-09-12T08:53:47.354Z,67.4
2017-09-12T08:54:48.015Z,67.2
2017-09-12T08:55:48.679Z,67.3
2017-09-12T08:56:49.343Z,66.9
2017-09-12T08:57:50.304Z,67.0
2017-09-12T08:58:50.965Z,66.2
2017-09-12T08:59:51.628Z,66.0
2017-09-12T09:00:52.291Z,65.5
2017-09-12T09:01:52.990Z,65.1
2017-09-12T09:02:53.905Z,64.6
2017-09-12T09:03:54.603Z,63.9
2017-09-12T09:04:55.267Z,63.9
2017-09-12T09:05:55.930Z,64.8
2017-09-12T09:06:56.595Z,65.1
2017-09-12T09:07:57.593Z,65.1
2017-09-12T09:08:58.255Z,66.0
2017-09-12T09:09:58.918Z,65.2
2017-09-12T09:10:59.581Z,65.6
2017-09-12T09:12:00.244Z,65.8
2017-09-12T09:13:01.245Z,65.7
2017-09-12T09:14:01.910Z,66.4
2017-09-12T09:15:02.574Z,65.4
2017-09-12T09:16:03.238Z,64.3
2017-09-12T09:17:03.899Z,64.7
2017-09-12T09:18:04.812Z,64.7
2017-09-12T09:19:05.474Z,65.1
2017-09-12T09:20:06.153Z,65.3
2017-09-12T09:21:06.803Z,65.0
2017-09-12T09:22:07.465Z,65.5
2017-09-12T09:23:08.426Z,66.0
2017-09-12T09:24:09.088Z,65.7
2017-09-12T09:25:09.750Z,65.8
2017-09-12T09:26:10.412Z,66.4
2017-09-12T09:27:11.077Z,65.9
2017-09-12T09:28:11.993Z,65.6
2017-09-12T09:29:12.689Z,65.8
2017-09-12T09:30:13.317Z,65.4
2017-09-12T09:31:13.981Z,65.7
2017-09-12T09:32:14.643Z,65.1
2017-09-12T09:33:15.555Z,65.5
2017-09-12T09:34:16.219Z,65.8
2017-09-12T09:35:16.883Z,65.7
2017-09-12T09:36:17.543Z,66.1
2017-09-12T09:37:18.207Z,65.7
2017-09-12T09:38:19.126Z,65.6
2017-09-12T09:39:19.819Z,65.1
2017-09-12T09:40:20.488Z,65.7
2017-09-12T09:41:21.145Z,65.6
2017-09-12T09:42:21.806Z,66.3
2017-09-12T09:43:22.769Z,66.3
2017-09-12T09:44:23.432Z,65.4
2017-09-12T09:45:24.100Z,65.2
2017-09-12T09:46:24.760Z,63.5
2017-09-12T09:47:25.424Z,63.2
2017-09-12T09:48:26.336Z,64.7
2017-09-12T09:49:26.999Z,65.1
2017-09-12T09:50:27.662Z,64.2
2017-09-12T09:51:28.323Z,63.9
2017-09-12T09:52:28.993Z,64.1
2017-09-12T09:53:29.957Z,65.2
2017-09-12T09:54:30.622Z,65.0
2017-09-12T09:55:31.291Z,65.3
2017-09-12T09:56:31.948Z,65.6
2017-09-12T09:57:32.613Z,65.9
2017-09-12T09:58:33.521Z,66.3
2017-09-12T09:59:34.182Z,67.2
2017-09-12T10:00:34.845Z,66.6
2017-09-12T10:01:35.508Z,66.9
2017-09-12T10:02:36.173Z,67.1
2017-09-12T10:03:37.084Z,66.9
2017-09-12T10:04:37.747Z,67.3
2017-09-12T10:05:38.411Z,66.3
2017-09-12T10:06:39.070Z,66.2
2017-09-12T10:07:39.734Z,66.4
2017-09-12T10:08:40.647Z,66.2
2017-09-12T10:09:41.318Z,66.0
2017-09-12T10:10:41.972Z,65.2
2017-09-12T10:11:42.644Z,65.3
2017-09-12T10:12:43.294Z,65.8
2017-09-12T10:13:44.259Z,65.9
2017-09-12T10:14:44.922Z,66.7
2017-09-12T10:15:45.582Z,67.2
2017-09-12T10:16:46.244Z,66.6
2017-09-12T10:17:46.907Z,66.4
2017-09-12T10:18:47.817Z,66.8
2017-09-12T10:19:48.480Z,68.7
2017-09-12T10:20:49.141Z,70.4
2017-09-12T10:21:49.802Z,72.0
2017-09-12T10:22:50.463Z,74.1
2017-09-12T10:23:51.376Z,76.8
2017-09-12T10:24:52.041Z,77.7
2017-09-12T10:25:52.704Z,77.9
2017-09-12T10:26:53.364Z,77.2
2017-09-12T10:27:54.026Z,77.0
2017-09-12T10:28:54.938Z,77.1
2017-09-12T10:29:55.599Z,74.9
2017-09-12T10:30:56.260Z,75.5
2017-09-12T10:31:56.924Z,74.9
2017-09-12T10:32:57.585Z,74.7
2017-09-12T10:33:58.499Z,75.0
2017-09-12T10:34:59.162Z,73.4
2017-09-12T10:35:59.823Z,73.1
2017-09-12T10:37:00.484Z,71.8
2017-09-12T10:38:01.149Z,68.3
2017-09-12T10:39:02.114Z,67.1
2017-09-12T10:40:02.780Z,64.9
2017-09-12T10:41:03.442Z,65.5
2017-09-12T10:42:04.105Z,64.5
2017-09-12T10:43:04.804Z,62.8
2017-09-12T10:44:05.719Z,63.2
2017-09-12T10:45:06.382Z,63.5
2017-09-12T10:46:07.047Z,62.8
2017-09-12T10:47:07.711Z,62.5
2017-09-12T10:48:08.377Z,62.5
2017-09-12T10:49:09.289Z,63.4
2017-09-12T10:50:09.957Z,62.0
2017-09-12T10:51:10.622Z,62.3
2017-09-12T10:52:11.286Z,64.3
2017-09-12T10:53:11.984Z,63.9
2017-09-12T10:54:12.897Z,62.6
2017-09-12T10:55:13.563Z,63.3
2017-09-12T10:56:14.227Z,64.6
2017-09-12T10:57:14.889Z,64.0
2017-09-12T10:58:15.556Z,63.0
2017-09-12T10:59:16.473Z,60.9
2017-09-12T11:00:17.173Z,58.6
2017-09-12T11:01:17.874Z,60.3
2017-09-12T11:02:18.537Z,60.7
2017-09-12T11:03:19.207Z,59.5
2017-09-12T11:04:20.175Z,60.5
2017-09-12T11:05:20.836Z,59.9
2017-09-12T11:06:21.499Z,59.8
2017-09-12T11:07:22.164Z,61.1
2017-09-12T11:08:22.831Z,60.6
2017-09-12T11:09:23.746Z,62.0
2017-09-12T11:10:24.410Z,61.7
2017-09-12T11:11:25.074Z,61.0
2017-09-12T11:12:25.737Z,62.6
2017-09-12T11:13:26.406Z,62.8
2017-09-12T11:14:27.321Z,62.8
2017-09-12T11:15:27.988Z,61.6
2017-09-12T11:16:28.650Z,61.5
2017-09-12T11:17:29.315Z,60.4
2017-09-12T11:18:29.978Z,59.0
2017-09-12T11:19:30.894Z,58.6
2017-09-12T11:20:31.557Z,58.0
2017-09-12T11:21:32.223Z,56.6
2017-09-12T11:22:32.924Z,55.2
2017-09-12T11:23:33.589Z,50.8
2017-09-12T11:24:34.517Z,50.3
2017-09-12T11:25:35.172Z,50.9
2017-09-12T11:26:35.839Z,52.6
2017-09-12T11:27:36.506Z,53.0
2017-09-12T11:28:37.173Z,52.7
2017-09-12T11:29:38.141Z,50.6
2017-09-12T11:30:38.809Z,48.4
2017-09-12T11:31:39.477Z,46.5
2017-09-12T11:32:40.150Z,44.9
2017-09-12T11:33:40.817Z,43.8
2017-09-12T11:34:41.737Z,42.4
2017-09-12T11:35:42.406Z,41.3
2017-09-12T11:36:43.075Z,41.4
2017-09-12T11:37:43.747Z,41.5
2017-09-12T11:38:44.419Z,40.4
2017-09-12T11:39:45.355Z,38.2
2017-09-12T11:40:46.022Z,36.4
2017-09-12T11:41:46.693Z,35.7
2017-09-12T11:42:47.362Z,34.8
2017-09-12T11:43:48.029Z,35.0
2017-09-12T11:44:48.951Z,38.1
2017-09-12T11:45:49.621Z,37.0
2017-09-12T11:46:50.291Z,35.5
2017-09-12T11:47:50.962Z,34.7
2017-09-12T11:48:51.637Z,33.3
2017-09-12T11:49:52.566Z,32.6
2017-09-12T11:50:53.228Z,30.9
2017-09-12T11:51:53.899Z,30.3
2017-09-12T11:52:54.605Z,31.0
2017-09-12T11:53:55.275Z,32.0
2017-09-12T11:54:56.245Z,31.1
2017-09-12T11:55:56.919Z,29.5
2017-09-12T11:56:57.599Z,29.7
2017-09-12T11:57:58.264Z,29.5
2017-09-12T11:58:58.937Z,30.1
2017-09-12T11:59:59.860Z,28.7
2017-09-12T12:01:00.530Z,28.1
2017-09-12T12:02:01.199Z,28.4
2017-09-12T12:03:01.871Z,32.1
2017-09-12T12:04:02.575Z,34.7
2017-09-12T12:05:03.496Z,37.2
2017-09-12T12:06:04.164Z,38.4
2017-09-12T12:07:04.832Z,39.8
2017-09-12T12:08:05.500Z,39.5
2017-09-12T12:09:06.168Z,40.8
2017-09-12T12:10:07.138Z,40.3
2017-09-12T12:11:07.807Z,38.3
2017-09-12T12:12:08.480Z,36.6
2017-09-12T12:13:09.152Z,34.5
2017-09-12T12:14:09.823Z,33.6
2017-09-12T12:15:10.743Z,33.1
2017-09-12T12:16:11.413Z,32.0
2017-09-12T12:17:12.118Z,30.6
2017-09-12T12:18:12.799Z,29.5
2017-09-12T12:19:13.460Z,28.6
2017-09-12T12:20:14.387Z,27.4
2017-09-12T12:21:15.088Z,26.6
2017-09-12T12:22:15.758Z,25.8
2017-09-12T12:23:16.427Z,27.1
2017-09-12T12:24:17.098Z,29.9
2017-09-12T12:25:18.018Z,30.2
2017-09-12T12:26:18.687Z,30.5
2017-09-12T12:27:19.361Z,32.1
2017-09-12T12:28:20.025Z,33.0
2017-09-12T12:29:20.693Z,33.1
2017-09-12T12:30:21.663Z,33.3
2017-09-12T12:31:22.332Z,34.0
2017-09-12T12:32:23.003Z,34.0
2017-09-12T12:33:23.673Z,31.1
2017-09-12T12:34:24.345Z,29.6
2017-09-12T12:35:25.300Z,30.3
2017-09-12T12:36:25.967Z,33.1
2017-09-12T12:37:26.636Z,34.3
2017-09-12T12:38:27.304Z,36.1
2017-09-12T12:39:27.970Z,38.2
2017-09-12T12:40:28.891Z,39.4
2017-09-12T12:41:29.562Z,39.8
2017-09-12T12:42:30.230Z,38.7
2017-09-12T12:43:30.894Z,38.9
2017-09-12T12:44:31.563Z,38.7
2017-09-12T12:45:32.530Z,38.9
2017-09-12T12:46:33.200Z,38.4
2017-09-12T12:47:33.870Z,38.8
2017-09-12T12:48:34.541Z,38.0
2017-09-12T12:49:35.210Z,37.0
2017-09-12T12:50:36.130Z,34.2
2017-09-12T12:51:36.804Z,32.1
2017-09-12T12:52:37.469Z,29.0
2017-09-12T12:53:38.140Z,28.2
2017-09-12T12:54:38.811Z,26.6
2017-09-12T12:55:39.731Z,25.6
2017-09-12T12:56:40.403Z,24.1
2017-09-12T12:57:41.076Z,24.5
2017-09-12T12:58:41.783Z,25.4
2017-09-12T12:59:42.450Z,27.3
2017-09-12T13:00:43.367Z,29.3
2017-09-12T13:01:44.037Z,26.4
2017-09-12T13:02:44.707Z,25.5
2017-09-12T13:03:45.379Z,24.3
2017-09-12T13:04:46.050Z,23.6
2017-09-12T13:05:46.972Z,22.2
2017-09-12T13:06:47.640Z,22.2
2017-09-12T13:07:48.311Z,21.2
2017-09-12T13:08:48.982Z,21.0
2017-09-12T13:09:49.651Z,23.5
2017-09-12T13:10:50.622Z,27.2
2017-09-12T13:11:51.291Z,31.0
2017-09-12T13:12:51.963Z,33.4
2017-09-12T13:13:52.665Z,35.0
2017-09-12T13:14:53.332Z,35.3
2017-09-12T13:15:54.250Z,38.4
2017-09-12T13:16:54.918Z,41.2
2017-09-12T13:17:55.585Z,42.4
2017-09-12T13:18:56.254Z,44.1
2017-09-12T13:19:56.919Z,45.9
2017-09-12T13:20:57.888Z,47.1
2017-09-12T13:21:58.587Z,49.2
2017-09-12T13:22:59.253Z,50.5
2017-09-12T13:23:59.919Z,52.5
2017-09-12T13:25:00.584Z,54.3
2017-09-12T13:26:01.497Z,57.3
2017-09-12T13:27:02.162Z,59.4
2017-09-12T13:28:02.828Z,61.7
2017-09-12T13:29:03.494Z,62.9